createdAt,value
2023-04-23T00:24:58.643Z,55.60
2023-04-23T00:28:30.504Z,39.90
2023-04-23T00:31:59.981Z,32.80
2023-04-23T00:47:12.365Z,22.80
2023-04-23T00:50:41.850Z,19.30
2023-04-23T00:54:23.106Z,20.20
2023-04-23T00:58:04.064Z,20.40
2023-04-23T01:56:07.257Z,32.60
2023-04-23T01:59:35.390Z,27.10
2023-04-23T02:03:16.685Z,28.00
2023-04-23T02:06:58.181Z,23.30
2023-04-23T02:25:45.435Z,21.80
2023-04-23T02:29:17.198Z,23.10
2023-04-23T02:32:46.481Z,18.60
2023-04-23T02:36:16.143Z,25.20
2023-04-23T02:39:45.135Z,24.20
2023-04-23T02:43:13.145Z,29.30
2023-04-23T03:12:22.822Z,28.40
2023-04-23T03:16:04.504Z,28.60
2023-04-23T03:19:18.545Z,31.40
2023-04-23T03:22:51.015Z,27.70
2023-04-23T03:41:24.466Z,24.70
2023-04-23T03:45:11.643Z,27.30
2023-04-23T03:48:09.828Z,27.40
2023-04-23T03:51:53.272Z,24.00
2023-04-23T03:55:22.481Z,24.70
2023-04-23T03:58:57.621Z,33.80
2023-04-23T04:02:15.846Z,27.80
2023-04-23T04:09:33.001Z,26.60
2023-04-23T04:31:16.403Z,24.20
2023-04-23T04:34:46.718Z,24.10
2023-04-23T04:38:16.265Z,23.60
2023-04-23T04:41:45.381Z,22.00
2023-04-23T04:45:20.834Z,21.80
2023-04-23T04:48:54.112Z,23.80
2023-04-23T04:52:34.674Z,21.60
2023-04-23T05:10:59.942Z,19.10
2023-04-23T05:14:35.643Z,23.30
2023-04-23T05:18:14.620Z,19.60
2023-04-23T05:21:53.694Z,17.70
2023-04-23T05:25:25.978Z,17.30
2023-04-23T05:54:11.268Z,19.40
2023-04-23T05:57:47.298Z,17.60
2023-04-23T06:01:28.344Z,13.60
2023-04-23T06:05:16.196Z,15.00
2023-04-23T06:27:46.665Z,13.70
2023-04-23T06:31:18.829Z,12.00
2023-04-23T06:38:48.452Z,12.20
2023-04-23T06:42:25.669Z,14.50
2023-04-23T06:45:59.379Z,11.50
2023-04-23T06:49:28.111Z,11.60
2023-04-23T07:17:33.444Z,8.60
2023-04-23T07:20:22.902Z,11.40
2023-04-23T07:23:09.949Z,10.70
2023-04-23T07:25:38.819Z,10.30
2023-04-23T07:28:35.316Z,10.90
2023-04-23T07:31:18.879Z,9.70
2023-04-23T07:33:59.885Z,9.80
2023-04-23T07:36:37.485Z,8.10
2023-04-23T07:39:15.019Z,12.10
2023-04-23T07:41:48.270Z,8.20
2023-04-23T07:44:22.818Z,8.80
2023-04-23T07:46:51.845Z,10.10
2023-04-23T07:49:25.749Z,9.80
2023-04-23T07:52:01.686Z,8.30
2023-04-23T07:54:30.117Z,12.20
2023-04-23T07:56:59.090Z,8.20
2023-04-23T07:59:27.705Z,9.30
2023-04-23T08:01:56.270Z,10.50
2023-04-23T08:04:25.185Z,9.90
2023-04-23T08:06:54.660Z,9.30
2023-04-23T08:09:23.927Z,7.70
2023-04-23T08:11:53.102Z,7.90
2023-04-23T08:14:21.672Z,8.50
2023-04-23T08:16:50.067Z,10.10
2023-04-23T08:19:18.605Z,11.40
2023-04-23T08:21:47.775Z,10.20
2023-04-23T08:24:16.911Z,11.20
2023-04-23T08:26:47.034Z,9.90
2023-04-23T08:29:15.444Z,7.00
2023-04-23T08:31:43.932Z,7.90
2023-04-23T08:34:13.177Z,7.20
2023-04-23T08:36:41.989Z,7.40
2023-04-23T08:39:10.755Z,8.70
2023-04-23T08:41:45.434Z,5.30
2023-04-23T08:44:17.524Z,10.40
2023-04-23T08:46:46.802Z,7.50
2023-04-23T08:49:17.008Z,6.20
2023-04-23T08:52:11.210Z,11.30
2023-04-23T08:54:41.575Z,9.10
2023-04-23T08:57:11.221Z,5.50
2023-04-23T08:59:43.759Z,10.40
2023-04-23T09:02:12.606Z,6.60
2023-04-23T09:04:41.782Z,6.30
2023-04-23T09:07:13.900Z,6.80
2023-04-23T09:09:42.650Z,8.40
2023-04-23T09:12:11.597Z,6.10
2023-04-23T09:14:40.471Z,6.80
2023-04-23T09:17:09.305Z,8.60
2023-04-23T09:19:40.163Z,9.30
2023-04-23T09:22:10.397Z,7.10
2023-04-23T09:24:42.652Z,8.80
2023-04-23T09:27:11.910Z,5.80
2023-04-23T09:29:40.640Z,6.10
2023-04-23T09:32:10.071Z,10.70
2023-04-23T09:34:39.101Z,8.10
2023-04-23T09:37:12.088Z,6.50
2023-04-23T09:39:41.320Z,6.30
2023-04-23T09:42:12.802Z,9.30
2023-04-23T09:44:41.807Z,6.60
2023-04-23T09:47:10.576Z,5.80
2023-04-23T09:49:47.172Z,8.00
2023-04-23T09:52:18.686Z,9.00
2023-04-23T09:54:47.874Z,5.70
2023-04-23T09:57:17.080Z,8.00
2023-04-23T09:59:51.332Z,8.40
2023-04-23T10:02:27.958Z,7.40
2023-04-23T10:05:10.055Z,5.20
2023-04-23T10:07:46.857Z,6.90
2023-04-23T10:10:16.189Z,10.00
2023-04-23T10:12:54.420Z,6.30
2023-04-23T10:15:26.362Z,8.90
2023-04-23T10:17:56.047Z,5.40
2023-04-23T10:20:24.898Z,17.20
2023-04-23T10:22:55.005Z,10.50
2023-04-23T10:25:24.955Z,6.00
2023-04-23T10:27:56.544Z,7.50
2023-04-23T10:30:25.857Z,5.20
2023-04-23T10:32:54.517Z,9.30
2023-04-23T10:35:23.155Z,8.00
2023-04-23T10:37:52.360Z,5.00
2023-04-23T10:40:24.969Z,6.40
2023-04-23T10:42:54.241Z,6.30
2023-04-23T10:45:25.642Z,8.00
2023-04-23T10:47:57.605Z,7.40
2023-04-23T10:50:31.483Z,6.90
2023-04-23T10:53:25.849Z,4.80
2023-04-23T10:56:08.041Z,6.70
2023-04-23T10:58:50.831Z,4.30
2023-04-23T11:01:21.213Z,7.10
2023-04-23T11:03:52.377Z,7.90
2023-04-23T11:06:43.759Z,6.60
2023-04-23T11:09:31.010Z,9.80
2023-04-23T11:12:01.908Z,9.70
2023-04-23T11:14:37.585Z,5.30
2023-04-23T11:17:08.689Z,4.50
2023-04-23T11:19:38.290Z,8.00
2023-04-23T11:22:12.950Z,13.60
2023-04-23T11:24:43.592Z,6.70
2023-04-23T11:27:20.032Z,7.10
2023-04-23T11:29:49.305Z,5.80
2023-04-23T11:32:17.977Z,6.70
2023-04-23T11:34:47.776Z,7.00
2023-04-23T11:37:17.390Z,7.90
2023-04-23T11:39:48.098Z,6.20
2023-04-23T11:42:20.528Z,5.30
2023-04-23T11:44:49.016Z,7.80
2023-04-23T11:47:19.183Z,4.80
2023-04-23T11:49:48.519Z,8.40
2023-04-23T11:52:42.902Z,6.00
2023-04-23T11:55:13.689Z,7.90
2023-04-23T11:57:49.886Z,8.30
2023-04-23T12:00:23.494Z,7.60
2023-04-23T12:02:56.507Z,5.20
2023-04-23T12:06:08.515Z,9.60
2023-04-23T12:08:47.384Z,6.00
2023-04-23T12:11:16.483Z,7.90
2023-04-23T12:13:45.618Z,9.40
2023-04-23T12:16:14.258Z,3.30
2023-04-23T12:18:44.616Z,5.50
2023-04-23T12:21:14.033Z,10.50
2023-04-23T12:23:45.471Z,8.30
2023-04-23T12:26:19.997Z,9.40
2023-04-23T12:28:54.214Z,5.10
2023-04-23T12:31:28.184Z,7.60
2023-04-23T12:34:17.827Z,6.20
2023-04-23T12:36:56.151Z,4.60
2023-04-23T12:39:48.103Z,4.40
2023-04-23T12:42:38.296Z,7.30
2023-04-23T12:45:31.912Z,7.70
2023-04-23T12:48:18.626Z,7.50
2023-04-23T12:51:05.109Z,4.70
2023-04-23T12:54:05.776Z,5.40
2023-04-23T12:57:13.868Z,7.70
2023-04-23T13:00:23.894Z,11.40
2023-04-23T13:03:10.186Z,6.40
2023-04-23T13:06:12.255Z,4.20
2023-04-23T13:08:55.682Z,9.50
2023-04-23T13:11:50.884Z,8.70
2023-04-23T13:14:59.701Z,6.10
2023-04-23T13:18:08.587Z,8.20
2023-04-23T13:20:53.232Z,7.90
2023-04-23T13:24:02.064Z,6.90
2023-04-23T13:26:56.279Z,6.20
2023-04-23T13:30:05.286Z,5.30
2023-04-23T13:33:13.236Z,3.80
2023-04-23T13:36:11.157Z,5.70
2023-04-23T13:39:22.133Z,4.90
2023-04-23T13:42:31.069Z,4.50
2023-04-23T13:45:23.819Z,4.10
2023-04-23T13:48:25.594Z,4.00
2023-04-23T13:51:21.823Z,5.10
2023-04-23T13:54:31.937Z,4.30
2023-04-23T13:57:40.756Z,5.90
2023-04-23T14:00:49.608Z,6.00
2023-04-23T14:03:48.682Z,5.70
2023-04-23T14:06:58.531Z,5.30
2023-04-23T14:10:10.027Z,4.90
2023-04-23T14:13:20.857Z,5.20
2023-04-23T14:16:30.339Z,5.30
2023-04-23T14:19:44.701Z,4.70
2023-04-23T14:25:49.485Z,5.90
2023-04-23T14:29:05.588Z,7.30
2023-04-23T14:32:14.930Z,5.30
2023-04-23T14:35:39.505Z,4.80
2023-04-23T14:38:54.450Z,6.40
2023-04-23T14:42:03.672Z,5.80
2023-04-23T14:45:17.061Z,7.50
2023-04-23T14:52:30.688Z,6.50
2023-04-23T14:55:59.434Z,7.10
2023-04-23T14:59:29.280Z,7.30
2023-04-23T15:02:59.496Z,7.30
2023-04-23T15:06:33.747Z,7.30
2023-04-23T15:13:30.353Z,8.70
2023-04-23T15:31:38.216Z,7.00
2023-04-23T15:35:07.968Z,7.10
2023-04-23T15:38:37.058Z,11.40
2023-04-23T15:42:12.070Z,7.90
2023-04-23T15:45:43.370Z,7.10
2023-04-23T15:49:21.334Z,10.50
2023-04-23T15:56:27.964Z,12.20
2023-04-23T16:26:01.223Z,10.00
2023-04-23T16:29:32.765Z,10.90
2023-04-23T16:51:45.593Z,6.40
2023-04-23T17:28:32.189Z,11.60
2023-04-23T17:32:05.981Z,14.20
2023-04-23T17:35:43.098Z,38.90
2023-04-23T17:39:21.752Z,21.30
2023-04-23T17:54:17.559Z,57.90
2023-04-23T18:01:54.874Z,49.30
2023-04-23T18:05:29.545Z,35.90
2023-04-23T18:08:44.443Z,31.20
2023-04-23T18:30:39.089Z,57.70
2023-04-23T18:34:29.526Z,56.50
2023-04-23T18:37:58.089Z,61.40
2023-04-23T18:41:31.661Z,36.50
2023-04-23T18:45:16.190Z,52.40
2023-04-23T18:48:46.887Z,47.50
2023-04-23T18:52:19.648Z,56.30
2023-04-23T19:19:01.996Z,40.60
2023-04-23T19:22:49.886Z,34.40
2023-04-23T19:30:36.943Z,24.10
2023-04-23T19:38:16.423Z,26.50
2023-04-23T20:08:00.676Z,36.90
2023-04-23T20:11:34.587Z,38.00
2023-04-23T20:15:16.157Z,38.00
2023-04-23T20:37:57.690Z,45.60
2023-04-23T20:57:37.633Z,34.80
2023-04-23T21:01:16.431Z,35.50
2023-04-23T21:04:49.627Z,34.80
2023-04-23T21:30:17.238Z,33.60
2023-04-23T21:33:46.978Z,34.80
2023-04-23T21:37:17.618Z,30.40
2023-04-23T21:40:50.223Z,31.60
2023-04-23T21:44:28.923Z,30.90
2023-04-23T21:59:10.522Z,29.40
2023-04-23T22:02:44.650Z,37.00
2023-04-23T22:06:36.711Z,36.80
2023-04-23T22:10:34.546Z,31.40
2023-04-23T22:14:07.944Z,33.90
2023-04-23T22:17:50.802Z,29.10
2023-04-23T22:37:12.413Z,28.80
2023-04-23T22:40:44.777Z,31.60
2023-04-23T22:44:21.770Z,36.30
2023-04-23T23:10:01.216Z,29.30
2023-04-23T23:13:34.068Z,31.00
2023-04-23T23:21:09.260Z,32.90
2023-04-23T23:24:41.686Z,30.10
2023-04-23T23:32:23.619Z,34.70
